createdAt,value
2022-11-24T00:01:09.501Z,20.48
2022-11-24T00:03:36.503Z,19.92
2022-11-24T00:08:38.671Z,19.00
2022-11-24T00:11:11.673Z,19.07
2022-11-24T00:13:41.791Z,18.27
2022-11-24T00:16:14.622Z,19.83
2022-11-24T00:18:43.250Z,19.25
2022-11-24T00:21:10.342Z,18.40
2022-11-24T00:23:37.226Z,19.77
2022-11-24T00:26:08.935Z,19.15
2022-11-24T00:28:36.800Z,17.90
2022-11-24T00:31:04.443Z,16.80
2022-11-24T00:33:31.458Z,17.57
2022-11-24T00:38:25.875Z,18.27
2022-11-24T00:40:53.227Z,17.73
2022-11-24T00:43:19.771Z,18.20
2022-11-24T00:45:46.404Z,17.42
2022-11-24T00:48:13.064Z,16.40
2022-11-24T00:50:39.627Z,17.80
2022-11-24T00:53:06.128Z,16.90
2022-11-24T00:55:32.604Z,17.00
2022-11-24T00:57:59.179Z,17.77
2022-11-24T01:00:26.480Z,17.35
2022-11-24T01:02:53.369Z,16.67
2022-11-24T01:05:20.126Z,17.15
2022-11-24T01:07:46.711Z,17.83
2022-11-24T01:10:13.327Z,17.88
2022-11-24T01:12:39.854Z,18.27
2022-11-24T01:15:06.746Z,19.52
2022-11-24T01:17:33.275Z,20.45
2022-11-24T01:19:59.808Z,18.60
2022-11-24T01:22:27.529Z,19.42
2022-11-24T01:24:54.028Z,18.07
2022-11-24T01:27:20.562Z,19.85
2022-11-24T01:29:47.086Z,19.00
2022-11-24T01:32:13.628Z,19.23
2022-11-24T01:34:40.144Z,19.15
2022-11-24T01:37:06.654Z,19.15
2022-11-24T01:39:33.129Z,17.20
2022-11-24T01:42:02.672Z,18.13
2022-11-24T01:44:31.190Z,19.60
2022-11-24T01:47:02.599Z,17.75
2022-11-24T01:49:43.667Z,17.33
2022-11-24T01:52:16.028Z,18.63
2022-11-24T01:54:48.752Z,17.97
2022-11-24T01:57:32.263Z,17.80
2022-11-24T02:00:08.297Z,17.77
2022-11-24T02:02:35.573Z,16.67
2022-11-24T02:05:08.636Z,17.70
2022-11-24T02:07:37.189Z,15.88
2022-11-24T02:10:10.475Z,17.47
2022-11-24T02:12:39.236Z,17.13
2022-11-24T02:15:06.488Z,16.07
2022-11-24T02:17:33.003Z,15.85
2022-11-24T02:20:05.997Z,12.73
2022-11-24T02:22:32.444Z,15.83
2022-11-24T02:25:15.441Z,18.77
2022-11-24T02:27:49.395Z,16.77
2022-11-24T02:30:19.074Z,14.80
2022-11-24T02:32:45.623Z,14.25
2022-11-24T02:35:12.757Z,16.52
2022-11-24T02:37:39.280Z,15.52
2022-11-24T02:40:06.445Z,16.00
2022-11-24T02:42:42.417Z,14.93
2022-11-24T02:45:11.375Z,14.80
2022-11-24T02:47:37.889Z,15.90
2022-11-24T02:50:04.846Z,15.55
2022-11-24T02:54:57.757Z,15.10
2022-11-24T02:57:24.421Z,16.63
2022-11-24T02:59:50.910Z,16.13
2022-11-24T03:02:17.476Z,16.00
2022-11-24T03:04:44.691Z,15.45
2022-11-24T03:07:11.336Z,15.30
2022-11-24T03:09:37.952Z,16.65
2022-11-24T03:12:04.639Z,16.35
2022-11-24T03:14:31.489Z,15.75
2022-11-24T03:19:24.592Z,13.88
2022-11-24T03:21:51.107Z,15.98
2022-11-24T03:24:17.595Z,15.52
2022-11-24T03:26:44.117Z,16.10
2022-11-24T03:29:10.730Z,14.90
2022-11-24T03:31:37.343Z,16.15
2022-11-24T03:34:04.038Z,17.67
2022-11-24T03:36:30.500Z,15.70
2022-11-24T03:38:57.015Z,15.23
2022-11-24T03:41:23.515Z,15.75
2022-11-24T03:43:50.118Z,15.45
2022-11-24T03:46:16.644Z,17.92
2022-11-24T03:48:43.361Z,18.30
2022-11-24T03:51:10.528Z,17.42
2022-11-24T03:53:37.212Z,16.87
2022-11-24T03:56:03.960Z,15.88
2022-11-24T03:58:31.215Z,16.15
2022-11-24T04:00:58.035Z,17.13
2022-11-24T04:03:25.359Z,14.75
2022-11-24T04:05:52.112Z,14.97
2022-11-24T04:08:19.159Z,14.45
2022-11-24T04:13:17.753Z,11.83
2022-11-24T04:15:44.936Z,13.37
2022-11-24T04:18:13.194Z,14.27
2022-11-24T04:20:44.136Z,13.63
2022-11-24T04:23:11.426Z,15.13
2022-11-24T04:25:38.513Z,13.90
2022-11-24T04:28:05.104Z,13.97
2022-11-24T04:30:32.266Z,13.55
2022-11-24T04:32:58.997Z,14.60
2022-11-24T04:35:25.559Z,14.57
2022-11-24T04:37:52.137Z,14.13
2022-11-24T04:40:19.326Z,13.05
2022-11-24T04:42:53.911Z,14.10
2022-11-24T04:45:20.494Z,13.73
2022-11-24T04:47:47.019Z,15.85
2022-11-24T04:50:13.601Z,15.80
2022-11-24T04:52:40.137Z,14.98
2022-11-24T04:55:07.159Z,15.13
2022-11-24T05:00:00.133Z,13.20
2022-11-24T05:02:26.628Z,12.65
2022-11-24T05:04:53.121Z,14.07
2022-11-24T05:07:19.886Z,15.38
2022-11-24T05:10:06.216Z,14.60
2022-11-24T05:12:33.691Z,15.40
2022-11-24T05:15:01.638Z,13.57
2022-11-24T05:17:30.881Z,15.70
2022-11-24T05:19:57.979Z,14.87
2022-11-24T05:22:25.210Z,15.10
2022-11-24T05:24:51.745Z,14.23
2022-11-24T05:27:18.275Z,14.07
2022-11-24T05:29:44.776Z,14.55
2022-11-24T05:32:11.320Z,14.65
2022-11-24T05:34:37.804Z,15.00
2022-11-24T05:37:04.957Z,14.35
2022-11-24T05:39:36.251Z,13.67
2022-11-24T05:42:24.813Z,13.60
2022-11-24T05:44:51.731Z,13.70
2022-11-24T05:47:18.566Z,14.88
2022-11-24T05:49:45.241Z,14.77
2022-11-24T05:52:12.321Z,14.18
2022-11-24T05:57:05.390Z,14.80
2022-11-24T05:59:31.947Z,12.90
2022-11-24T06:01:58.696Z,14.05
2022-11-24T06:04:25.532Z,14.00
2022-11-24T06:06:52.136Z,13.48
2022-11-24T06:09:18.783Z,14.88
2022-11-24T06:11:47.397Z,12.95
2022-11-24T06:14:14.616Z,14.32
2022-11-24T06:16:41.541Z,14.47
2022-11-24T06:21:35.906Z,13.00
2022-11-24T06:24:02.549Z,14.02
2022-11-24T06:26:29.046Z,13.38
2022-11-24T06:28:55.553Z,12.73
2022-11-24T06:31:22.135Z,13.77
2022-11-24T06:33:48.724Z,12.90
2022-11-24T06:36:15.524Z,13.88
2022-11-24T06:38:42.127Z,13.25
2022-11-24T06:41:12.805Z,13.02
2022-11-24T06:43:39.912Z,13.20
2022-11-24T06:46:06.700Z,11.73
2022-11-24T06:48:33.498Z,12.68
2022-11-24T06:51:01.395Z,12.93
2022-11-24T06:53:38.197Z,13.27
2022-11-24T06:56:13.775Z,13.38
2022-11-24T06:58:44.598Z,14.65
2022-11-24T07:01:15.430Z,13.38
2022-11-24T07:03:42.287Z,13.15
2022-11-24T07:06:08.919Z,13.27
2022-11-24T07:08:35.445Z,12.13
2022-11-24T07:11:10.148Z,12.27
2022-11-24T07:13:37.072Z,11.40
2022-11-24T07:16:15.294Z,12.20
2022-11-24T07:18:43.589Z,12.33
2022-11-24T07:21:10.369Z,11.88
2022-11-24T07:23:37.719Z,10.48
2022-11-24T07:26:07.018Z,12.45
2022-11-24T07:28:34.987Z,10.77
2022-11-24T07:31:08.785Z,11.32
2022-11-24T07:33:35.858Z,12.63
2022-11-24T07:38:31.023Z,13.57
2022-11-24T07:41:10.220Z,13.13
2022-11-24T07:43:37.745Z,11.73
2022-11-24T07:46:05.929Z,11.70
2022-11-24T07:48:32.502Z,12.88
2022-11-24T07:51:00.483Z,14.07
2022-11-24T07:53:27.774Z,14.02
2022-11-24T07:56:01.840Z,12.73
2022-11-24T07:58:32.635Z,13.32
2022-11-24T08:01:00.576Z,13.20
2022-11-24T08:03:27.588Z,11.93
2022-11-24T08:08:45.307Z,11.67
2022-11-24T08:11:17.118Z,12.20
2022-11-24T08:13:44.435Z,11.52
2022-11-24T08:16:17.483Z,11.38
2022-11-24T08:18:48.699Z,11.25
2022-11-24T08:21:15.404Z,12.35
2022-11-24T08:23:42.437Z,12.30
2022-11-24T08:28:38.300Z,11.88
2022-11-24T08:33:36.209Z,12.07
2022-11-24T08:36:17.339Z,11.02
2022-11-24T08:38:44.844Z,12.02
2022-11-24T08:41:14.169Z,10.73
2022-11-24T08:43:40.958Z,11.32
2022-11-24T08:46:13.803Z,11.43
2022-11-24T08:48:41.606Z,11.88
2022-11-24T08:51:11.707Z,11.20
2022-11-24T08:53:38.978Z,11.35
2022-11-24T08:56:06.678Z,10.88
2022-11-24T08:58:34.252Z,10.63
2022-11-24T09:01:17.590Z,10.93
2022-11-24T09:03:51.399Z,9.93
2022-11-24T09:06:22.867Z,12.88
2022-11-24T09:08:49.844Z,11.65
2022-11-24T09:11:17.331Z,12.10
2022-11-24T09:13:46.749Z,10.77
2022-11-24T09:16:19.144Z,11.13
2022-11-24T09:18:46.444Z,11.13
2022-11-24T09:21:16.645Z,11.15
2022-11-24T09:23:44.500Z,9.75
2022-11-24T09:26:20.075Z,9.45
2022-11-24T09:28:48.118Z,10.00
2022-11-24T09:31:17.088Z,11.30
2022-11-24T09:33:44.677Z,10.30
2022-11-24T09:36:13.273Z,10.32
2022-11-24T09:38:40.357Z,10.02
2022-11-24T09:44:01.024Z,12.05
2022-11-24T09:46:49.337Z,11.32
2022-11-24T09:49:24.235Z,10.23
2022-11-24T09:51:55.198Z,10.88
2022-11-24T09:54:28.790Z,11.95
2022-11-24T09:56:59.797Z,11.73
2022-11-24T09:59:27.560Z,11.45
2022-11-24T10:01:55.896Z,12.02
2022-11-24T10:04:29.626Z,11.57
2022-11-24T10:07:21.259Z,12.07
2022-11-24T10:10:01.115Z,9.77
2022-11-24T10:12:49.439Z,12.45
2022-11-24T10:15:41.593Z,10.95
2022-11-24T10:18:46.857Z,11.88
2022-11-24T10:21:19.416Z,11.00
2022-11-24T10:24:22.820Z,10.98
2022-11-24T10:27:01.640Z,11.90
2022-11-24T10:29:39.194Z,11.60
2022-11-24T10:32:13.422Z,10.85
2022-11-24T10:34:49.966Z,12.38
2022-11-24T10:37:28.265Z,11.20
2022-11-24T10:40:40.960Z,12.23
2022-11-24T10:43:11.238Z,12.02
2022-11-24T10:45:39.376Z,12.15
2022-11-24T10:48:20.169Z,12.52
2022-11-24T10:50:47.099Z,11.90
2022-11-24T10:53:34.956Z,12.93
2022-11-24T10:56:04.935Z,11.07
2022-11-24T10:58:38.486Z,10.95
2022-11-24T11:01:14.403Z,11.02
2022-11-24T11:03:59.687Z,11.33
2022-11-24T11:06:31.655Z,10.65
2022-11-24T11:09:07.147Z,9.32
2022-11-24T11:11:41.858Z,10.57
2022-11-24T11:14:12.936Z,11.48
2022-11-24T11:16:53.137Z,11.65
2022-11-24T11:19:49.845Z,13.20
2022-11-24T11:22:30.311Z,12.38
2022-11-24T11:25:07.982Z,11.98
2022-11-24T11:27:34.718Z,12.00
2022-11-24T11:35:50.338Z,11.32
2022-11-24T11:38:17.119Z,10.85
2022-11-24T11:40:43.935Z,11.88
2022-11-24T11:43:19.802Z,11.70
2022-11-24T11:45:49.857Z,11.60
2022-11-24T11:48:25.435Z,10.32
2022-11-24T11:51:25.248Z,9.23
2022-11-24T11:54:01.007Z,9.98
2022-11-24T11:56:40.350Z,9.50
2022-11-24T11:59:12.902Z,9.30
2022-11-24T12:02:01.341Z,10.18
2022-11-24T12:04:44.098Z,9.40
2022-11-24T12:07:25.524Z,10.15
2022-11-24T12:09:52.076Z,11.13
2022-11-24T12:12:30.657Z,14.00
2022-11-24T12:15:10.806Z,12.90
2022-11-24T12:17:55.595Z,13.32
2022-11-24T12:20:51.040Z,12.98
2022-11-24T12:23:42.070Z,12.83
2022-11-24T12:26:26.418Z,12.27
2022-11-24T12:29:05.009Z,14.20
2022-11-24T12:31:51.780Z,11.32
2022-11-24T12:34:33.590Z,11.68
2022-11-24T12:37:03.095Z,11.85
2022-11-24T12:39:53.119Z,10.57
2022-11-24T12:42:50.998Z,9.75
2022-11-24T12:45:40.763Z,9.15
2022-11-24T12:48:15.552Z,9.73
2022-11-24T12:50:45.395Z,9.65
2022-11-24T12:53:26.201Z,13.15
2022-11-24T12:55:54.704Z,11.77
2022-11-24T12:59:15.712Z,10.82
2022-11-24T13:01:51.144Z,9.73
2022-11-24T13:04:38.057Z,10.13
2022-11-24T13:07:11.564Z,10.73
2022-11-24T13:09:38.164Z,9.98
2022-11-24T13:12:12.761Z,9.65
2022-11-24T13:14:43.350Z,10.00
2022-11-24T13:17:42.004Z,9.20
2022-11-24T13:20:25.416Z,10.20
2022-11-24T13:22:54.621Z,10.23
2022-11-24T13:25:24.625Z,9.50
2022-11-24T13:27:53.542Z,10.57
2022-11-24T13:30:35.215Z,11.55
2022-11-24T13:33:16.017Z,11.25
2022-11-24T13:36:04.178Z,14.00
2022-11-24T13:38:50.929Z,12.52
2022-11-24T13:41:32.528Z,11.93
2022-11-24T13:44:17.422Z,13.32
2022-11-24T13:47:07.032Z,13.02
2022-11-24T13:49:41.888Z,14.77
2022-11-24T13:52:39.678Z,15.15
2022-11-24T13:55:12.091Z,15.80
2022-11-24T13:57:42.808Z,16.63
2022-11-24T14:00:33.972Z,15.40
2022-11-24T14:03:19.107Z,15.68
2022-11-24T14:05:51.349Z,13.57
2022-11-24T14:08:29.116Z,13.82
2022-11-24T14:11:11.684Z,11.73
2022-11-24T14:16:29.605Z,11.35
2022-11-24T14:19:10.092Z,11.85
2022-11-24T14:21:41.300Z,11.18
2022-11-24T14:24:42.201Z,11.23
2022-11-24T14:27:17.590Z,12.70
2022-11-24T14:29:59.146Z,12.95
2022-11-24T14:32:26.027Z,12.43
2022-11-24T14:34:54.213Z,11.90
2022-11-24T14:37:21.285Z,14.45
2022-11-24T14:39:47.848Z,13.40
2022-11-24T14:42:27.489Z,11.85
2022-11-24T14:44:58.705Z,12.25
2022-11-24T14:47:32.494Z,12.13
2022-11-24T14:50:19.333Z,12.07
2022-11-24T14:55:30.722Z,11.90
2022-11-24T14:57:58.362Z,11.20
2022-11-24T15:00:24.830Z,10.73
2022-11-24T15:03:07.129Z,10.70
2022-11-24T15:05:55.078Z,10.55
2022-11-24T15:08:24.173Z,9.80
2022-11-24T15:11:06.286Z,10.68
2022-11-24T15:13:37.424Z,10.70
2022-11-24T15:16:07.834Z,9.75
2022-11-24T15:18:47.092Z,9.20
2022-11-24T15:21:18.892Z,9.05
2022-11-24T15:24:05.964Z,9.60
2022-11-24T15:29:08.348Z,9.18
2022-11-24T15:31:35.054Z,9.77
2022-11-24T15:34:01.670Z,9.77
2022-11-24T15:36:28.262Z,9.57
2022-11-24T15:38:54.810Z,9.15
2022-11-24T15:41:25.811Z,10.52
2022-11-24T15:43:58.874Z,10.27
2022-11-24T15:46:29.925Z,10.30
2022-11-24T15:48:57.254Z,8.90
2022-11-24T15:51:26.789Z,9.10
2022-11-24T15:54:00.293Z,9.75
2022-11-24T15:56:33.011Z,10.80
2022-11-24T15:59:00.785Z,9.38
2022-11-24T16:01:31.396Z,9.50
2022-11-24T16:03:58.283Z,9.75
2022-11-24T16:06:25.584Z,9.38
2022-11-24T16:08:55.932Z,8.80
2022-11-24T16:11:23.247Z,8.55
2022-11-24T16:13:53.398Z,7.82
2022-11-24T16:16:21.196Z,8.85
2022-11-24T16:18:47.769Z,8.90
2022-11-24T16:21:14.478Z,7.88
2022-11-24T16:23:41.103Z,7.50
2022-11-24T16:26:07.860Z,8.25
2022-11-24T16:28:34.537Z,8.27
2022-11-24T16:31:01.491Z,8.43
2022-11-24T16:35:59.012Z,7.53
2022-11-24T16:38:25.660Z,8.18
2022-11-24T16:40:54.075Z,7.90
2022-11-24T16:43:21.307Z,8.55
2022-11-24T16:46:18.644Z,8.85
2022-11-24T16:48:46.781Z,8.90
2022-11-24T16:51:14.185Z,10.82
2022-11-24T16:53:41.162Z,12.93
2022-11-24T16:58:38.017Z,9.98
2022-11-24T17:01:10.489Z,8.65
2022-11-24T17:03:37.951Z,7.68
2022-11-24T17:06:09.950Z,8.32
2022-11-24T17:08:38.513Z,7.53
2022-11-24T17:11:06.681Z,9.02
2022-11-24T17:13:34.032Z,9.65
2022-11-24T17:16:05.572Z,9.55
2022-11-24T17:18:32.252Z,9.27
2022-11-24T17:21:03.227Z,9.65
2022-11-24T17:23:32.759Z,10.85
2022-11-24T17:26:03.611Z,10.32
2022-11-24T17:28:30.204Z,9.95
2022-11-24T17:30:57.111Z,8.77
2022-11-24T17:33:24.101Z,10.88
2022-11-24T17:38:17.116Z,11.20
2022-11-24T17:40:48.094Z,10.32
2022-11-24T17:43:14.673Z,11.00
2022-11-24T17:45:41.383Z,13.25
2022-11-24T17:48:08.466Z,13.00
2022-11-24T17:50:34.987Z,12.60
2022-11-24T17:53:01.508Z,12.88
2022-11-24T17:55:27.982Z,12.98
2022-11-24T17:57:55.955Z,12.75
2022-11-24T18:00:22.682Z,12.00
2022-11-24T18:02:49.313Z,12.88
2022-11-24T18:05:16.103Z,11.95
2022-11-24T18:07:42.731Z,11.40
2022-11-24T18:10:09.726Z,11.27
2022-11-24T18:15:02.678Z,11.43
2022-11-24T18:17:29.244Z,13.38
2022-11-24T18:19:56.294Z,12.60
2022-11-24T18:25:09.645Z,12.70
2022-11-24T18:27:36.200Z,12.85
2022-11-24T18:30:03.879Z,14.38
2022-11-24T18:32:30.406Z,16.48
2022-11-24T18:34:56.932Z,15.07
2022-11-24T18:37:23.526Z,14.93
2022-11-24T18:39:50.078Z,16.27
2022-11-24T18:42:17.756Z,14.73
2022-11-24T18:44:45.436Z,16.85
2022-11-24T18:47:14.193Z,16.13
2022-11-24T18:49:40.708Z,18.25
2022-11-24T18:52:07.234Z,17.77
2022-11-24T18:54:34.094Z,18.98
2022-11-24T18:57:03.467Z,18.92
2022-11-24T18:59:30.387Z,19.52
2022-11-24T19:01:58.090Z,19.50
2022-11-24T19:04:26.310Z,17.55
2022-11-24T19:06:52.895Z,17.55
2022-11-24T19:09:22.527Z,17.42
2022-11-24T19:11:49.142Z,17.80
2022-11-24T19:14:19.107Z,19.50
2022-11-24T19:16:48.053Z,17.98
2022-11-24T19:19:15.175Z,21.77
2022-11-24T19:24:13.290Z,20.85
2022-11-24T19:26:40.234Z,20.52
2022-11-24T19:29:07.607Z,20.70
2022-11-24T19:31:35.246Z,18.83
2022-11-24T19:34:03.500Z,19.25
2022-11-24T19:36:30.261Z,18.98
2022-11-24T19:38:58.118Z,17.83
2022-11-24T19:41:27.766Z,17.33
2022-11-24T19:43:54.750Z,16.55
2022-11-24T19:48:50.574Z,13.75
2022-11-24T19:51:25.496Z,12.30
2022-11-24T19:53:53.058Z,10.68
2022-11-24T19:56:25.122Z,10.02
2022-11-24T19:58:52.225Z,9.23
2022-11-24T20:03:53.290Z,8.52
2022-11-24T20:06:19.768Z,8.60
2022-11-24T20:08:46.316Z,9.02
2022-11-24T20:11:18.311Z,7.95
2022-11-24T20:13:46.792Z,8.40
2022-11-24T20:16:15.815Z,8.85
2022-11-24T20:18:45.073Z,8.57
2022-11-24T20:21:17.215Z,8.00
2022-11-24T20:23:45.840Z,8.48
2022-11-24T20:26:15.569Z,12.13
2022-11-24T20:28:42.783Z,15.75
2022-11-24T20:31:21.803Z,13.90
2022-11-24T20:33:49.566Z,14.40
2022-11-24T20:36:18.895Z,13.43
2022-11-24T20:38:47.055Z,14.40
2022-11-24T20:41:16.737Z,13.57
2022-11-24T20:43:44.781Z,13.23
2022-11-24T20:46:18.130Z,14.68
2022-11-24T20:48:45.205Z,14.98
2022-11-24T20:53:40.620Z,16.40
2022-11-24T20:56:09.818Z,15.15
2022-11-24T20:58:37.499Z,13.55
2022-11-24T21:01:21.814Z,13.32
2022-11-24T21:03:53.166Z,10.60
2022-11-24T21:06:19.747Z,10.00
2022-11-24T21:08:46.374Z,10.40
2022-11-24T21:11:14.927Z,11.25
2022-11-24T21:13:44.412Z,10.30
2022-11-24T21:16:29.138Z,10.05
2022-11-24T21:18:58.163Z,10.70
2022-11-24T21:21:28.300Z,10.55
2022-11-24T21:23:54.906Z,10.27
2022-11-24T21:26:21.401Z,9.48
2022-11-24T21:28:48.279Z,10.00
2022-11-24T21:31:20.432Z,10.00
2022-11-24T21:33:52.142Z,9.15
2022-11-24T21:36:22.470Z,8.63
2022-11-24T21:38:54.250Z,10.95
2022-11-24T21:41:22.096Z,10.23
2022-11-24T21:43:50.047Z,12.20
2022-11-24T21:46:17.461Z,11.82
2022-11-24T21:48:44.547Z,11.98
2022-11-24T21:53:47.128Z,12.35
2022-11-24T21:56:16.984Z,12.55
2022-11-24T21:58:48.739Z,12.15
2022-11-24T22:01:17.267Z,12.75
2022-11-24T22:03:44.467Z,13.80
2022-11-24T22:06:11.495Z,12.95
2022-11-24T22:11:07.748Z,14.32
2022-11-24T22:13:34.602Z,15.50
2022-11-24T22:16:07.304Z,14.20
2022-11-24T22:18:39.778Z,13.95
2022-11-24T22:21:07.942Z,14.65
2022-11-24T22:23:36.292Z,13.23
2022-11-24T22:26:24.827Z,12.13
2022-11-24T22:28:52.148Z,13.35
2022-11-24T22:31:26.953Z,11.77
2022-11-24T22:33:54.630Z,11.85
2022-11-24T22:36:22.964Z,10.07
2022-11-24T22:39:03.226Z,10.05
2022-11-24T22:41:31.172Z,10.32
2022-11-24T22:43:57.906Z,10.98
2022-11-24T22:46:27.037Z,10.82
2022-11-24T22:48:54.892Z,11.65
2022-11-24T22:51:26.955Z,11.60
2022-11-24T22:53:56.086Z,11.95
2022-11-24T22:56:23.469Z,10.40
2022-11-24T22:58:50.365Z,13.15
2022-11-24T23:01:22.120Z,12.32
2022-11-24T23:03:49.596Z,11.82
2022-11-24T23:06:24.006Z,12.60
2022-11-24T23:08:51.558Z,10.93
2022-11-24T23:11:29.118Z,11.85
2022-11-24T23:14:00.562Z,10.95
2022-11-24T23:16:27.700Z,11.40
2022-11-24T23:18:55.011Z,10.13
2022-11-24T23:21:24.451Z,11.10
2022-11-24T23:23:51.846Z,11.15
2022-11-24T23:26:20.992Z,10.25
2022-11-24T23:28:47.987Z,9.45
2022-11-24T23:33:43.156Z,10.25
2022-11-24T23:36:12.751Z,9.93
2022-11-24T23:38:40.248Z,10.48
2022-11-24T23:41:12.034Z,11.02
2022-11-24T23:43:40.779Z,10.35
2022-11-24T23:46:10.003Z,10.95
2022-11-24T23:48:37.239Z,9.45
2022-11-24T23:51:10.319Z,11.10
2022-11-24T23:53:37.022Z,10.55
2022-11-24T23:56:04.355Z,10.60
2022-11-24T23:58:32.003Z,10.15
